Time;durP1;ratioP1;P1;durP2;ratioP2;P2;SDS_P1;SDS_P2;PMS_P1;PMS_P2;Temp;Humidity;BMP_temperature;BMP_pressure;BME280_temperature;BME280_humidity;BME280_pressure;Samples;Min_cycle;Max_cycle;Signal;HPM_P1;HPM_P2
2023/05/12 00:00:23;;;;;;;;;;;10.90;99.90;;;;;;5105790;28;19994;-70
2023/05/12 00:02:50;;;;;;;;;;;10.80;99.90;;;;;;5105626;28;20259;-70
2023/05/12 00:05:17;;;;;;;;;;;10.80;99.90;;;;;;5105303;28;19920;-70
2023/05/12 00:07:45;;;;;;;;;;;10.80;99.90;;;;;;5105101;28;19987;-69
2023/05/12 00:10:11;;;;;;;;;;;10.80;99.90;;;;;;5105576;28;19920;-69
2023/05/12 00:12:38;;;;;;;;;;;10.80;99.90;;;;;;5102203;28;20191;-71
2023/05/12 00:15:05;;;;;;;;;;;10.80;99.90;;;;;;5085192;28;19920;-70
2023/05/12 00:17:32;;;;;;;;;;;10.80;99.90;;;;;;5084578;28;19921;-71
2023/05/12 00:19:58;;;;;;;;;;;10.80;99.90;;;;;;5085133;28;19983;-69
2023/05/12 00:22:25;;;;;;;;;;;10.80;99.90;;;;;;5084932;28;19984;-70
2023/05/12 00:24:53;;;;;;;;;;;10.70;99.90;;;;;;5104034;28;19920;-71
2023/05/12 00:27:20;;;;;;;;;;;10.70;99.90;;;;;;5104657;28;19920;-70
2023/05/12 00:29:46;;;;;;;;;;;10.70;99.90;;;;;;5102742;28;19983;-69
2023/05/12 00:32:13;;;;;;;;;;;10.70;99.90;;;;;;5104491;28;19920;-69
2023/05/12 00:34:40;;;;;;;;;;;10.70;99.90;;;;;;5104669;28;19975;-69
2023/05/12 00:37:06;;;;;;;;;;;10.70;99.90;;;;;;5104483;28;19920;-70
2023/05/12 00:39:33;;;;;;;;;;;10.80;99.90;;;;;;5105033;28;19942;-69
2023/05/12 00:42:02;;;;;;;;;;;10.70;99.90;;;;;;5102402;28;19995;-70
2023/05/12 00:44:28;;;;;;;;;;;10.80;99.90;;;;;;5104560;28;19927;-70
2023/05/12 00:46:55;;;;;;;;;;;10.70;99.90;;;;;;5084582;28;19921;-69
2023/05/12 00:49:22;;;;;;;;;;;10.70;99.90;;;;;;5084664;28;19927;-70
2023/05/12 00:51:49;;;;;;;;;;;10.70;99.90;;;;;;5084425;28;19921;-71
2023/05/12 00:54:16;;;;;;;;;;;10.80;99.90;;;;;;5084353;28;19920;-71
2023/05/12 00:56:42;;;;;;;;;;;10.70;99.90;;;;;;5083834;28;19921;-69
2023/05/12 00:59:10;;;;;;;;;;;10.70;99.90;;;;;;5084447;28;19983;-71
2023/05/12 01:01:37;;;;;;;;;;;10.70;99.90;;;;;;5084309;28;19921;-70
2023/05/12 01:04:04;;;;;;;;;;;10.80;99.90;;;;;;5084260;28;19921;-71
2023/05/12 01:06:35;;;;;;;;;;;10.80;99.90;;;;;;5083575;28;20196;-70
2023/05/12 01:09:02;;;;;;;;;;;10.80;99.90;;;;;;5084289;28;19920;-70
2023/05/12 01:11:29;;;;;;;;;;;10.70;99.90;;;;;;5084192;28;19971;-69
2023/05/12 01:13:55;;;;;;;;;;;10.70;99.90;;;;;;5084039;28;19952;-70
2023/05/12 01:16:26;;;;;;;;;;;10.70;99.90;;;;;;5083300;28;19920;-69
2023/05/12 01:18:54;;;;;;;;;;;10.70;99.90;;;;;;5095059;28;19927;-69
2023/05/12 01:21:21;;;;;;;;;;;10.70;99.90;;;;;;5104223;28;19919;-69
2023/05/12 01:23:49;;;;;;;;;;;10.70;99.90;;;;;;5103912;28;19988;-70
2023/05/12 01:26:17;;;;;;;;;;;10.70;99.90;;;;;;5103568;28;20094;-71
2023/05/12 01:28:44;;;;;;;;;;;10.70;99.90;;;;;;5103977;28;19992;-71
2023/05/12 01:31:11;;;;;;;;;;;10.70;99.90;;;;;;5104174;28;19994;-70
2023/05/12 01:33:38;;;;;;;;;;;10.70;99.90;;;;;;5103681;28;19920;-69
2023/05/12 01:36:05;;;;;;;;;;;10.70;99.90;;;;;;5103595;28;19943;-71
2023/05/12 01:38:32;;;;;;;;;;;10.70;99.90;;;;;;5103689;28;19951;-70
2023/05/12 01:40:58;;;;;;;;;;;10.70;99.90;;;;;;5103688;28;20280;-69
2023/05/12 01:43:26;;;;;;;;;;;10.70;99.90;;;;;;5103788;28;19987;-70
2023/05/12 01:45:53;;;;;;;;;;;10.60;99.90;;;;;;5102792;28;19920;-69
2023/05/12 01:48:20;;;;;;;;;;;10.60;99.90;;;;;;5103591;28;19926;-70
2023/05/12 01:50:46;;;;;;;;;;;10.60;99.90;;;;;;5104036;28;19983;-69
2023/05/12 01:53:13;;;;;;;;;;;10.70;99.90;;;;;;5103820;28;19952;-71
2023/05/12 01:55:40;;;;;;;;;;;10.60;99.90;;;;;;5103625;28;19956;-69
2023/05/12 01:58:06;;;;;;;;;;;10.60;99.90;;;;;;5103784;28;19920;-70
2023/05/12 02:00:35;;;;;;;;;;;10.50;99.90;;;;;;5103824;28;19920;-69
2023/05/12 02:03:01;;;;;;;;;;;10.50;99.90;;;;;;5103451;28;19983;-72
2023/05/12 02:05:28;;;;;;;;;;;10.50;99.90;;;;;;5103821;28;19978;-70
2023/05/12 02:07:55;;;;;;;;;;;10.50;99.90;;;;;;5103262;28;19927;-70
2023/05/12 02:10:21;;;;;;;;;;;10.50;99.90;;;;;;5103695;28;19958;-70
2023/05/12 02:12:48;;;;;;;;;;;10.60;99.90;;;;;;5103729;28;20139;-69
2023/05/12 02:15:15;;;;;;;;;;;10.50;99.90;;;;;;5103296;28;20258;-69
2023/05/12 02:17:42;;;;;;;;;;;10.60;99.90;;;;;;5103541;28;19988;-69
2023/05/12 02:20:10;;;;;;;;;;;10.60;99.90;;;;;;5103842;28;20115;-71
2023/05/12 02:22:37;;;;;;;;;;;10.50;99.90;;;;;;5103764;28;19920;-70
2023/05/12 02:25:04;;;;;;;;;;;10.60;99.90;;;;;;5103376;28;20221;-69
2023/05/12 02:27:31;;;;;;;;;;;10.60;99.90;;;;;;5103175;28;19920;-69
2023/05/12 02:29:58;;;;;;;;;;;10.60;99.90;;;;;;5103729;28;19920;-70
2023/05/12 02:32:26;;;;;;;;;;;10.60;99.90;;;;;;5103522;28;19979;-70
2023/05/12 02:34:54;;;;;;;;;;;10.60;99.90;;;;;;5103363;28;19920;-71
2023/05/12 02:37:21;;;;;;;;;;;10.60;99.90;;;;;;5102976;28;19983;-70
2023/05/12 02:39:48;;;;;;;;;;;10.60;99.90;;;;;;5103232;28;20111;-71
2023/05/12 02:42:14;;;;;;;;;;;10.60;99.90;;;;;;5103248;28;19970;-70
2023/05/12 02:44:41;;;;;;;;;;;10.60;99.90;;;;;;5103371;28;19983;-70
2023/05/12 02:47:07;;;;;;;;;;;10.70;99.90;;;;;;5102646;28;20259;-69
2023/05/12 02:49:35;;;;;;;;;;;10.70;99.90;;;;;;5102743;28;19920;-71
2023/05/12 02:52:03;;;;;;;;;;;10.60;99.90;;;;;;5103468;28;19952;-69
2023/05/12 02:54:29;;;;;;;;;;;10.60;99.90;;;;;;5103604;28;20204;-70
2023/05/12 02:56:57;;;;;;;;;;;10.60;99.90;;;;;;5106240;28;19987;-69
2023/05/12 02:59:23;;;;;;;;;;;10.60;99.90;;;;;;5107191;28;19929;-70
2023/05/12 03:01:50;;;;;;;;;;;10.60;99.90;;;;;;5107002;28;19966;-71
2023/05/12 03:04:17;;;;;;;;;;;10.50;99.90;;;;;;5097811;28;19920;-70
2023/05/12 03:06:43;;;;;;;;;;;10.50;99.90;;;;;;5085601;28;19964;-70
2023/05/12 03:09:12;;;;;;;;;;;10.50;99.90;;;;;;5086628;28;19951;-70
2023/05/12 03:11:40;;;;;;;;;;;10.50;99.90;;;;;;5085975;28;20400;-71
2023/05/12 03:14:07;;;;;;;;;;;10.50;99.90;;;;;;5095118;28;19962;-69
2023/05/12 03:16:34;;;;;;;;;;;10.40;99.90;;;;;;5105672;28;19988;-69
2023/05/12 03:19:01;;;;;;;;;;;10.50;99.90;;;;;;5106669;28;19987;-70
2023/05/12 03:21:28;;;;;;;;;;;10.40;99.90;;;;;;5106402;28;19920;-70
2023/05/12 03:23:56;;;;;;;;;;;10.40;99.90;;;;;;5106055;28;19927;-69
2023/05/12 03:26:24;;;;;;;;;;;10.40;99.90;;;;;;5087017;28;19979;-71
2023/05/12 03:28:50;;;;;;;;;;;10.40;99.90;;;;;;5085921;28;19920;-71
2023/05/12 03:31:17;;;;;;;;;;;10.50;99.90;;;;;;5086128;28;19987;-69
2023/05/12 03:33:43;;;;;;;;;;;10.50;99.90;;;;;;5085664;28;20120;-71
2023/05/12 03:36:10;;;;;;;;;;;10.50;99.90;;;;;;5085318;28;19988;-69
2023/05/12 03:38:37;;;;;;;;;;;10.50;99.90;;;;;;5085856;28;20141;-70
2023/05/12 03:41:04;;;;;;;;;;;10.50;99.90;;;;;;5085923;28;19962;-71
2023/05/12 03:43:32;;;;;;;;;;;10.40;99.90;;;;;;5086058;28;19926;-72
2023/05/12 03:45:59;;;;;;;;;;;10.40;99.90;;;;;;5085912;28;20157;-69
2023/05/12 03:48:25;;;;;;;;;;;10.40;99.90;;;;;;5085982;28;19928;-71
2023/05/12 03:50:52;;;;;;;;;;;10.50;99.90;;;;;;5086044;28;19920;-70
2023/05/12 03:53:18;;;;;;;;;;;10.50;99.90;;;;;;5097440;28;19983;-71
2023/05/12 03:55:45;;;;;;;;;;;10.50;99.90;;;;;;5105282;28;19927;-69
2023/05/12 03:58:12;;;;;;;;;;;10.40;99.90;;;;;;5105618;28;19974;-70
2023/05/12 04:00:40;;;;;;;;;;;10.40;99.90;;;;;;5105530;28;20256;-69
2023/05/12 04:03:06;;;;;;;;;;;10.40;99.90;;;;;;5105674;28;20001;-70
2023/05/12 04:05:33;;;;;;;;;;;10.40;99.90;;;;;;5105225;28;19920;-72
2023/05/12 04:08:00;;;;;;;;;;;10.40;99.90;;;;;;5104590;28;19920;-69
2023/05/12 04:10:27;;;;;;;;;;;10.50;99.90;;;;;;5105356;28;19927;-69
2023/05/12 04:12:53;;;;;;;;;;;10.40;99.90;;;;;;5105469;28;19992;-70
2023/05/12 04:15:20;;;;;;;;;;;10.40;99.90;;;;;;5105047;28;19990;-69
2023/05/12 04:17:49;;;;;;;;;;;10.40;99.90;;;;;;5104797;28;19926;-71
2023/05/12 04:20:15;;;;;;;;;;;10.40;99.90;;;;;;5105316;28;19920;-72
2023/05/12 04:22:43;;;;;;;;;;;10.40;99.90;;;;;;5105149;28;19920;-69
2023/05/12 04:25:09;;;;;;;;;;;10.40;99.90;;;;;;5105080;28;20164;-69
2023/05/12 04:27:36;;;;;;;;;;;10.40;99.90;;;;;;5104670;28;19920;-69
2023/05/12 04:30:03;;;;;;;;;;;10.40;99.90;;;;;;5105240;28;20003;-69
2023/05/12 04:32:29;;;;;;;;;;;10.40;99.90;;;;;;5105175;28;20093;-71
2023/05/12 04:34:58;;;;;;;;;;;10.40;99.90;;;;;;5102447;28;19994;-71
2023/05/12 04:37:26;;;;;;;;;;;10.50;99.90;;;;;;5101819;28;20089;-70
2023/05/12 04:39:52;;;;;;;;;;;10.50;99.90;;;;;;5105075;28;19955;-70
2023/05/12 04:42:19;;;;;;;;;;;10.50;99.90;;;;;;5104784;28;19966;-69
2023/05/12 04:44:46;;;;;;;;;;;10.50;99.90;;;;;;5104714;28;19952;-69
2023/05/12 04:47:12;;;;;;;;;;;10.50;99.90;;;;;;5101485;28;19920;-70
2023/05/12 04:49:39;;;;;;;;;;;10.50;99.90;;;;;;5104962;28;20085;-71
2023/05/12 04:52:07;;;;;;;;;;;10.50;99.90;;;;;;5104439;28;19987;-69
2023/05/12 04:54:33;;;;;;;;;;;10.50;99.90;;;;;;5103964;28;19942;-71
2023/05/12 04:57:00;;;;;;;;;;;10.50;99.90;;;;;;5103787;28;19951;-69
2023/05/12 04:59:27;;;;;;;;;;;10.50;99.90;;;;;;5104820;28;20146;-71
2023/05/12 05:01:53;;;;;;;;;;;10.50;99.90;;;;;;5104632;28;19967;-69
2023/05/12 05:04:20;;;;;;;;;;;10.50;99.90;;;;;;5102394;28;19920;-71
2023/05/12 05:06:47;;;;;;;;;;;10.50;99.90;;;;;;5103828;28;19947;-70
2023/05/12 05:09:15;;;;;;;;;;;10.50;99.90;;;;;;5104627;28;19991;-69
2023/05/12 05:11:41;;;;;;;;;;;10.50;99.90;;;;;;5104518;28;19920;-69
2023/05/12 05:14:08;;;;;;;;;;;10.50;99.90;;;;;;5104502;28;19971;-69
2023/05/12 05:16:35;;;;;;;;;;;10.50;99.90;;;;;;5103293;28;19986;-69
2023/05/12 05:19:02;;;;;;;;;;;10.50;99.90;;;;;;5104245;28;19991;-69
2023/05/12 05:21:28;;;;;;;;;;;10.50;99.90;;;;;;5101844;28;20272;-69
2023/05/12 05:23:55;;;;;;;;;;;10.50;99.90;;;;;;5104042;28;19958;-70
2023/05/12 05:26:23;;;;;;;;;;;10.60;99.90;;;;;;5102941;28;19983;-69
2023/05/12 05:28:53;;;;;;;;;;;10.60;99.90;;;;;;5103468;28;19987;-69
2023/05/12 05:31:20;;;;;;;;;;;10.60;99.90;;;;;;5104029;28;19920;-72
2023/05/12 05:33:47;;;;;;;;;;;10.60;99.90;;;;;;5093039;28;20112;-67
2023/05/12 05:36:14;;;;;;;;;;;10.60;99.90;;;;;;5082840;28;19920;-69
2023/05/12 05:38:40;;;;;;;;;;;10.70;99.90;;;;;;5081717;28;19987;-67
2023/05/12 05:41:07;;;;;;;;;;;10.70;99.90;;;;;;5084074;28;19987;-71
2023/05/12 05:43:35;;;;;;;;;;;10.70;99.90;;;;;;5083521;28;19984;-70
2023/05/12 05:46:02;;;;;;;;;;;10.70;99.90;;;;;;5083334;28;19956;-70
2023/05/12 05:48:28;;;;;;;;;;;10.70;99.90;;;;;;5097815;28;19982;-69
2023/05/12 05:50:55;;;;;;;;;;;10.70;99.90;;;;;;5103592;28;19995;-69
2023/05/12 05:53:22;;;;;;;;;;;10.80;99.90;;;;;;5101418;28;19920;-70
2023/05/12 05:55:48;;;;;;;;;;;10.70;99.90;;;;;;5103457;28;20321;-70
2023/05/12 05:58:15;;;;;;;;;;;10.80;99.90;;;;;;5103277;28;19962;-69
2023/05/12 06:00:43;;;;;;;;;;;10.80;99.90;;;;;;5103702;28;19920;-69
2023/05/12 06:03:10;;;;;;;;;;;10.80;99.90;;;;;;5103768;28;20112;-69
2023/05/12 06:05:37;;;;;;;;;;;10.80;99.90;;;;;;5103383;28;19956;-71
2023/05/12 06:08:04;;;;;;;;;;;10.80;99.90;;;;;;5103511;28;19920;-70
2023/05/12 06:10:30;;;;;;;;;;;10.80;99.90;;;;;;5103806;28;19920;-71
2023/05/12 06:12:57;;;;;;;;;;;10.80;99.90;;;;;;5103753;28;19920;-71
2023/05/12 06:15:23;;;;;;;;;;;10.80;99.90;;;;;;5103551;28;19958;-71
2023/05/12 06:17:51;;;;;;;;;;;10.80;99.90;;;;;;5103034;28;20042;-70
2023/05/12 06:20:18;;;;;;;;;;;10.90;99.90;;;;;;5103685;28;19920;-70
2023/05/12 06:22:45;;;;;;;;;;;10.90;99.90;;;;;;5103501;28;19927;-70
2023/05/12 06:25:12;;;;;;;;;;;10.90;99.90;;;;;;5103076;28;19961;-71
2023/05/12 06:27:38;;;;;;;;;;;10.90;99.90;;;;;;5103138;28;19987;-71
2023/05/12 06:30:06;;;;;;;;;;;10.90;99.90;;;;;;5101350;28;19970;-70
2023/05/12 06:32:33;;;;;;;;;;;11.00;99.90;;;;;;5105884;28;19920;-70
2023/05/12 06:35:01;;;;;;;;;;;11.00;99.90;;;;;;5107303;28;19955;-70
2023/05/12 06:37:27;;;;;;;;;;;11.00;99.90;;;;;;5106916;28;19920;-70
2023/05/12 06:39:54;;;;;;;;;;;11.00;99.90;;;;;;5107057;28;20234;-70
2023/05/12 06:42:20;;;;;;;;;;;11.10;99.90;;;;;;5107097;28;19920;-70
2023/05/12 06:44:47;;;;;;;;;;;11.10;99.90;;;;;;5107213;28;19958;-69
2023/05/12 06:47:14;;;;;;;;;;;11.10;99.90;;;;;;5106622;28;19982;-70
2023/05/12 06:49:40;;;;;;;;;;;11.20;99.90;;;;;;5107176;28;19943;-71
2023/05/12 06:52:08;;;;;;;;;;;11.20;99.90;;;;;;5105515;28;19983;-71
2023/05/12 06:54:35;;;;;;;;;;;11.30;99.90;;;;;;5106577;28;19921;-69
2023/05/12 06:57:01;;;;;;;;;;;11.30;99.90;;;;;;5106380;28;19988;-70
2023/05/12 06:59:28;;;;;;;;;;;11.30;99.90;;;;;;5106762;28;20196;-71
2023/05/12 07:01:55;;;;;;;;;;;11.40;99.90;;;;;;5096169;28;19920;-71
2023/05/12 07:04:21;;;;;;;;;;;11.50;99.90;;;;;;5086578;28;19983;-70
2023/05/12 07:06:48;;;;;;;;;;;11.60;99.90;;;;;;5085553;28;19960;-69
2023/05/12 07:09:17;;;;;;;;;;;11.60;99.90;;;;;;5086565;28;19987;-71
2023/05/12 07:11:44;;;;;;;;;;;11.60;99.90;;;;;;5086574;28;20131;-72
2023/05/12 07:14:10;;;;;;;;;;;11.60;99.90;;;;;;5086110;28;19921;-69
2023/05/12 07:16:37;;;;;;;;;;;11.70;99.90;;;;;;5083156;28;19936;-71
2023/05/12 07:19:05;;;;;;;;;;;11.70;99.90;;;;;;5086342;28;19927;-69
2023/05/12 07:21:31;;;;;;;;;;;11.70;99.90;;;;;;5086364;28;19992;-70
2023/05/12 07:23:58;;;;;;;;;;;11.70;99.90;;;;;;5086096;28;19992;-70
2023/05/12 07:26:27;;;;;;;;;;;11.70;99.90;;;;;;5085921;28;19927;-71
2023/05/12 07:28:54;;;;;;;;;;;11.70;99.90;;;;;;5086045;28;19928;-70
2023/05/12 07:31:22;;;;;;;;;;;11.70;99.90;;;;;;5079942;28;19983;-70
2023/05/12 07:33:48;;;;;;;;;;;11.70;99.90;;;;;;5086108;28;19920;-73
2023/05/12 07:36:15;;;;;;;;;;;11.80;99.90;;;;;;5085587;28;20271;-70
2023/05/12 07:38:41;;;;;;;;;;;11.90;99.90;;;;;;5086980;28;19987;-70
2023/05/12 07:41:09;;;;;;;;;;;12.00;99.90;;;;;;5085710;28;19948;-70
2023/05/12 07:43:37;;;;;;;;;;;12.00;99.90;;;;;;5085798;28;19920;-71
2023/05/12 07:46:03;;;;;;;;;;;12.10;99.90;;;;;;5085711;28;19920;-69
2023/05/12 07:48:30;;;;;;;;;;;12.10;99.90;;;;;;5086097;28;19959;-70
2023/05/12 07:50:57;;;;;;;;;;;12.20;99.90;;;;;;5085844;28;19924;-69
2023/05/12 07:53:23;;;;;;;;;;;12.30;99.90;;;;;;5082923;28;20258;-69
2023/05/12 07:55:50;;;;;;;;;;;12.40;99.90;;;;;;5085635;28;19987;-71
2023/05/12 07:58:17;;;;;;;;;;;12.40;99.90;;;;;;5085232;28;19999;-71
2023/05/12 08:00:45;;;;;;;;;;;12.40;99.90;;;;;;5085651;28;19920;-71
2023/05/12 08:03:11;;;;;;;;;;;12.40;99.90;;;;;;5085388;28;19920;-69
2023/05/12 08:05:38;;;;;;;;;;;12.40;99.90;;;;;;5085243;28;19928;-69
2023/05/12 08:08:05;;;;;;;;;;;12.40;99.90;;;;;;5103451;28;19955;-70
2023/05/12 08:10:31;;;;;;;;;;;12.40;99.90;;;;;;5105535;28;19920;-69
2023/05/12 08:12:58;;;;;;;;;;;12.50;99.90;;;;;;5105606;28;19958;-69
2023/05/12 08:15:25;;;;;;;;;;;12.50;99.90;;;;;;5103211;28;19983;-69
2023/05/12 08:17:53;;;;;;;;;;;12.40;99.90;;;;;;5104846;28;19920;-70
2023/05/12 08:20:20;;;;;;;;;;;12.40;99.90;;;;;;5105445;28;20003;-71
2023/05/12 08:22:47;;;;;;;;;;;12.50;99.90;;;;;;5105129;28;20208;-71
2023/05/12 08:25:13;;;;;;;;;;;12.50;99.90;;;;;;5104931;28;19928;-69
2023/05/12 08:27:40;;;;;;;;;;;12.60;99.90;;;;;;5104374;28;19927;-73
2023/05/12 08:30:07;;;;;;;;;;;12.70;99.90;;;;;;5101236;28;19971;-70
2023/05/12 08:32:34;;;;;;;;;;;12.70;99.90;;;;;;5105093;28;20158;-71
2023/05/12 08:35:02;;;;;;;;;;;12.70;99.90;;;;;;5105139;28;19994;-69
2023/05/12 08:37:29;;;;;;;;;;;12.60;99.90;;;;;;5091742;28;20216;-69
2023/05/12 08:39:55;;;;;;;;;;;12.60;99.90;;;;;;5124973;28;19926;-73
2023/05/12 08:42:27;;;;;;;;;;;12.60;99.90;;;;;;5125480;28;20117;-69
2023/05/12 08:44:54;;;;;;;;;;;12.60;99.90;;;;;;5125288;28;19986;-71
2023/05/12 08:47:23;;;;;;;;;;;12.60;99.90;;;;;;5098333;28;20263;-69
2023/05/12 08:49:56;;;;;;;;;;;12.60;99.90;;;;;;5084809;28;19920;-69
2023/05/12 08:52:24;;;;;;;;;;;12.60;99.90;;;;;;5084215;28;19920;-69
2023/05/12 08:54:52;;;;;;;;;;;12.70;99.90;;;;;;5084478;28;19951;-69
2023/05/12 08:57:20;;;;;;;;;;;12.70;99.90;;;;;;5085047;28;19995;-71
2023/05/12 08:59:47;;;;;;;;;;;12.80;99.90;;;;;;5084462;28;19920;-70
2023/05/12 09:02:14;;;;;;;;;;;12.90;99.90;;;;;;5083954;28;19987;-70
2023/05/12 09:04:41;;;;;;;;;;;13.00;99.90;;;;;;5084152;28;19920;-71
2023/05/12 09:07:08;;;;;;;;;;;13.10;99.90;;;;;;5083272;28;19920;-70
2023/05/12 09:09:37;;;;;;;;;;;13.20;99.90;;;;;;5084244;28;19926;-69
2023/05/12 09:12:06;;;;;;;;;;;13.30;99.90;;;;;;5083891;28;19920;-71
2023/05/12 09:14:34;;;;;;;;;;;13.40;99.90;;;;;;5084148;28;19920;-73
2023/05/12 09:17:03;;;;;;;;;;;13.40;99.90;;;;;;5082842;28;19920;-69
2023/05/12 09:19:30;;;;;;;;;;;13.40;99.90;;;;;;5084136;28;19926;-70
2023/05/12 09:21:57;;;;;;;;;;;13.30;99.90;;;;;;5084127;28;19948;-70
2023/05/12 09:24:33;;;;;;;;;;;13.30;99.90;;;;;;5083805;28;19920;-70
2023/05/12 09:27:01;;;;;;;;;;;13.40;99.90;;;;;;5083458;28;19920;-71
2023/05/12 09:29:28;;;;;;;;;;;13.40;99.90;;;;;;5084060;28;19920;-70
2023/05/12 09:31:57;;;;;;;;;;;13.50;99.90;;;;;;5078791;28;19952;-71
2023/05/12 09:34:27;;;;;;;;;;;13.50;99.90;;;;;;5083856;28;19989;-69
2023/05/12 09:36:57;;;;;;;;;;;13.50;99.90;;;;;;5083056;28;20144;-69
2023/05/12 09:39:24;;;;;;;;;;;13.60;99.90;;;;;;5083836;28;19987;-70
2023/05/12 09:41:51;;;;;;;;;;;13.60;99.90;;;;;;5083955;28;20003;-71
2023/05/12 09:44:19;;;;;;;;;;;13.70;99.90;;;;;;5083312;28;20213;-69
2023/05/12 09:46:47;;;;;;;;;;;13.80;99.90;;;;;;5082934;28;20260;-70
2023/05/12 09:49:17;;;;;;;;;;;13.80;99.90;;;;;;5083714;28;19925;-69
2023/05/12 09:51:44;;;;;;;;;;;13.90;99.90;;;;;;5083863;28;20090;-71
2023/05/12 09:54:11;;;;;;;;;;;14.00;99.90;;;;;;5087198;28;19996;-70
2023/05/12 09:56:38;;;;;;;;;;;14.10;99.90;;;;;;5097972;28;19991;-71
2023/05/12 09:59:05;;;;;;;;;;;14.10;99.90;;;;;;5086062;28;19947;-70
2023/05/12 10:01:33;;;;;;;;;;;14.10;99.90;;;;;;5086049;28;19991;-69
2023/05/12 10:04:00;;;;;;;;;;;14.00;99.90;;;;;;5103673;28;19959;-70
2023/05/12 10:06:28;;;;;;;;;;;13.80;99.90;;;;;;5106742;28;19920;-70
2023/05/12 10:09:03;;;;;;;;;;;13.80;99.90;;;;;;5108043;28;19920;-69
2023/05/12 10:11:30;;;;;;;;;;;13.70;99.90;;;;;;5093063;28;20269;-70
2023/05/12 10:13:57;;;;;;;;;;;13.60;99.90;;;;;;5087478;28;19927;-70
2023/05/12 10:16:24;;;;;;;;;;;13.70;99.90;;;;;;5085552;28;19920;-71
2023/05/12 10:18:52;;;;;;;;;;;13.80;99.90;;;;;;5087524;28;19920;-69
2023/05/12 10:21:19;;;;;;;;;;;14.00;99.90;;;;;;5087272;28;19920;-71
2023/05/12 10:23:46;;;;;;;;;;;14.20;99.90;;;;;;5087204;28;19955;-71
2023/05/12 10:26:14;;;;;;;;;;;14.20;99.90;;;;;;5086919;28;19959;-69
2023/05/12 10:28:41;;;;;;;;;;;14.10;99.90;;;;;;5102801;28;20107;-69
2023/05/12 10:31:09;;;;;;;;;;;14.10;99.90;;;;;;5105847;28;20101;-67
2023/05/12 10:33:36;;;;;;;;;;;14.00;99.90;;;;;;5107128;28;19952;-67
2023/05/12 10:36:05;;;;;;;;;;;13.90;99.90;;;;;;5107183;28;19998;-68
2023/05/12 10:38:35;;;;;;;;;;;13.80;99.90;;;;;;5086034;28;19928;-67
2023/05/12 10:41:02;;;;;;;;;;;13.70;99.90;;;;;;5085647;28;20000;-68
2023/05/12 10:43:37;;;;;;;;;;;13.60;99.90;;;;;;5086539;28;20003;-67
2023/05/12 10:46:14;;;;;;;;;;;13.70;99.90;;;;;;5085918;28;19920;-70
2023/05/12 10:48:49;;;;;;;;;;;13.70;99.90;;;;;;5092075;28;19920;-68
2023/05/12 10:51:20;;;;;;;;;;;13.70;99.90;;;;;;5104781;28;19926;-68
2023/05/12 10:53:50;;;;;;;;;;;13.70;99.90;;;;;;5103233;28;19927;-68
2023/05/12 10:56:21;;;;;;;;;;;13.60;99.90;;;;;;5104974;28;20158;-67
2023/05/12 10:59:03;;;;;;;;;;;13.50;99.90;;;;;;5096546;28;20116;-68
2023/05/12 11:01:29;;;;;;;;;;;13.40;99.90;;;;;;5085240;28;20175;-67
2023/05/12 11:03:57;;;;;;;;;;;13.30;99.90;;;;;;5086450;28;19937;-69
2023/05/12 11:06:28;;;;;;;;;;;13.30;99.90;;;;;;5085368;28;20004;-69
2023/05/12 11:08:55;;;;;;;;;;;13.30;99.90;;;;;;5086212;28;19970;-69
2023/05/12 11:11:22;;;;;;;;;;;13.20;99.90;;;;;;5096073;28;19920;-67
2023/05/12 11:13:48;;;;;;;;;;;13.30;99.90;;;;;;5106560;28;19955;-68
2023/05/12 11:16:15;;;;;;;;;;;13.20;99.90;;;;;;5105439;28;19999;-67
2023/05/12 11:18:42;;;;;;;;;;;13.10;99.90;;;;;;5106144;28;19955;-67
2023/05/12 11:21:10;;;;;;;;;;;13.10;99.90;;;;;;5099481;28;19920;-68
2023/05/12 11:23:38;;;;;;;;;;;13.20;99.90;;;;;;5096500;28;19932;-67
2023/05/12 11:26:06;;;;;;;;;;;13.20;99.90;;;;;;5085159;28;19920;-67
2023/05/12 11:28:39;;;;;;;;;;;13.30;99.90;;;;;;5097282;28;19921;-68
2023/05/12 11:31:06;;;;;;;;;;;13.40;99.90;;;;;;5085018;28;19955;-67
2023/05/12 11:33:32;;;;;;;;;;;13.50;99.90;;;;;;5085252;28;19952;-69
2023/05/12 11:35:59;;;;;;;;;;;13.50;99.90;;;;;;5085591;28;19924;-69
2023/05/12 11:38:27;;;;;;;;;;;13.50;99.90;;;;;;5085518;28;20005;-68
2023/05/12 11:40:55;;;;;;;;;;;13.50;99.90;;;;;;5085952;28;19932;-68
2023/05/12 11:43:22;;;;;;;;;;;13.40;99.90;;;;;;5085716;28;20236;-67
2023/05/12 11:45:49;;;;;;;;;;;13.40;99.90;;;;;;5082880;28;19978;-69
2023/05/12 11:48:15;;;;;;;;;;;13.50;99.90;;;;;;5085696;28;19992;-68
2023/05/12 11:50:43;;;;;;;;;;;13.50;99.90;;;;;;5085753;28;20145;-67
2023/05/12 11:53:10;;;;;;;;;;;13.60;99.90;;;;;;5085229;28;20264;-67
2023/05/12 11:55:37;;;;;;;;;;;13.50;99.90;;;;;;5082545;28;20263;-67
2023/05/12 11:58:05;;;;;;;;;;;13.50;99.90;;;;;;5082578;28;19920;-68
2023/05/12 12:00:32;;;;;;;;;;;13.50;99.90;;;;;;5085317;28;19924;-70
2023/05/12 12:03:10;;;;;;;;;;;13.50;99.90;;;;;;5082390;28;20212;-69
2023/05/12 12:05:37;;;;;;;;;;;13.50;99.90;;;;;;5084927;28;19922;-69
2023/05/12 12:08:07;;;;;;;;;;;13.50;99.90;;;;;;5084638;28;19942;-69
2023/05/12 12:10:34;;;;;;;;;;;13.40;99.90;;;;;;5095121;28;19920;-68
2023/05/12 12:13:01;;;;;;;;;;;13.40;99.90;;;;;;5102577;28;20243;-68
2023/05/12 12:15:29;;;;;;;;;;;13.30;99.90;;;;;;5105304;28;19920;-67
2023/05/12 12:17:56;;;;;;;;;;;13.40;99.90;;;;;;5104774;28;19920;-68
2023/05/12 12:20:23;;;;;;;;;;;13.40;99.90;;;;;;5105267;28;19991;-69
2023/05/12 12:22:50;;;;;;;;;;;13.50;99.90;;;;;;5105304;28;19924;-69
2023/05/12 12:25:18;;;;;;;;;;;13.60;99.90;;;;;;5089938;28;19991;-69
2023/05/12 12:27:44;;;;;;;;;;;13.60;99.90;;;;;;5082795;28;19936;-67
2023/05/12 12:30:12;;;;;;;;;;;13.50;99.90;;;;;;5089513;28;19986;-71
2023/05/12 12:32:40;;;;;;;;;;;13.50;99.90;;;;;;5104766;28;19919;-67
2023/05/12 12:35:07;;;;;;;;;;;13.50;99.90;;;;;;5104953;28;19926;-67
2023/05/12 12:37:34;;;;;;;;;;;13.50;99.90;;;;;;5098185;28;19920;-67
2023/05/12 12:40:06;;;;;;;;;;;13.50;99.90;;;;;;5084595;28;19987;-67
2023/05/12 12:42:34;;;;;;;;;;;13.50;99.90;;;;;;5084547;28;19962;-67
2023/05/12 12:45:01;;;;;;;;;;;13.60;99.90;;;;;;5082537;28;20116;-68
2023/05/12 12:47:27;;;;;;;;;;;13.70;99.90;;;;;;5082406;28;19921;-68
2023/05/12 12:49:55;;;;;;;;;;;13.80;99.90;;;;;;5084187;28;19928;-68
2023/05/12 12:52:22;;;;;;;;;;;13.80;99.90;;;;;;5084361;28;19921;-67
2023/05/12 12:54:49;;;;;;;;;;;13.90;99.90;;;;;;5083155;28;19920;-68
2023/05/12 12:57:16;;;;;;;;;;;14.00;99.90;;;;;;5084091;28;19963;-67
2023/05/12 12:59:42;;;;;;;;;;;14.00;99.90;;;;;;5084122;28;19988;-68
2023/05/12 13:02:09;;;;;;;;;;;14.00;99.90;;;;;;5084142;28;19979;-68
2023/05/12 13:04:36;;;;;;;;;;;14.10;99.90;;;;;;5102949;28;19966;-67
2023/05/12 13:07:04;;;;;;;;;;;14.10;99.90;;;;;;5103500;28;19984;-66
2023/05/12 13:09:31;;;;;;;;;;;14.20;99.90;;;;;;5104353;28;19926;-69
2023/05/12 13:11:58;;;;;;;;;;;14.20;99.90;;;;;;5104309;28;19979;-67
2023/05/12 13:14:25;;;;;;;;;;;14.10;99.90;;;;;;5104280;28;19927;-68
2023/05/12 13:16:52;;;;;;;;;;;14.00;99.90;;;;;;5103738;28;19926;-68
2023/05/12 13:19:18;;;;;;;;;;;14.00;99.90;;;;;;5103107;28;19924;-67
2023/05/12 13:21:45;;;;;;;;;;;13.90;99.90;;;;;;5103335;28;20119;-67
2023/05/12 13:24:13;;;;;;;;;;;13.90;99.90;;;;;;5104012;28;19928;-67
2023/05/12 13:26:40;;;;;;;;;;;13.90;99.90;;;;;;5103340;28;20120;-68
2023/05/12 13:29:06;;;;;;;;;;;14.00;99.90;;;;;;5093153;28;19952;-67
2023/05/12 13:31:33;;;;;;;;;;;14.10;99.90;;;;;;5083156;28;19984;-67
2023/05/12 13:33:59;;;;;;;;;;;14.10;99.90;;;;;;5083825;28;19952;-68
2023/05/12 13:36:27;;;;;;;;;;;14.10;99.90;;;;;;5079432;28;19988;-68
2023/05/12 13:38:53;;;;;;;;;;;14.10;99.90;;;;;;5095628;28;19920;-69
2023/05/12 13:41:21;;;;;;;;;;;14.00;99.90;;;;;;5102006;28;19979;-68
2023/05/12 13:43:48;;;;;;;;;;;14.00;99.90;;;;;;5083352;28;19983;-68
2023/05/12 13:46:15;;;;;;;;;;;14.00;99.90;;;;;;5088905;28;20242;-67
2023/05/12 13:48:41;;;;;;;;;;;14.00;99.90;;;;;;5103071;28;19982;-68
2023/05/12 13:51:08;;;;;;;;;;;14.00;99.90;;;;;;5103207;28;20007;-67
2023/05/12 13:53:37;;;;;;;;;;;14.10;99.90;;;;;;5084771;28;19991;-67
2023/05/12 13:56:04;;;;;;;;;;;14.00;99.90;;;;;;5100076;28;19984;-67
2023/05/12 13:58:31;;;;;;;;;;;14.00;99.90;;;;;;5102919;28;19987;-66
2023/05/12 14:00:58;;;;;;;;;;;13.90;99.90;;;;;;5103030;28;19987;-68
2023/05/12 14:03:25;;;;;;;;;;;13.90;99.90;;;;;;5102223;28;19928;-67
2023/05/12 14:05:52;;;;;;;;;;;13.90;99.90;;;;;;5102789;28;19970;-67
2023/05/12 14:08:18;;;;;;;;;;;13.90;99.90;;;;;;5102024;28;20254;-67
2023/05/12 14:10:45;;;;;;;;;;;13.80;99.90;;;;;;5103035;28;19960;-67
2023/05/12 14:13:12;;;;;;;;;;;13.80;99.90;;;;;;5102958;28;19983;-69
2023/05/12 14:15:40;;;;;;;;;;;13.70;99.90;;;;;;5103075;28;19927;-67